sensor_id;sensor_type;location;lat;lon;timestamp;temperature;humidity
33207;DHT22;19565;46.602;11.534;2022-09-23T00:02:06;12.00;90.00
33207;DHT22;19565;46.602;11.534;2022-09-23T00:04:37;11.90;90.10
33207;DHT22;19565;46.602;11.534;2022-09-23T00:07:07;11.80;90.40
33207;DHT22;19565;46.602;11.534;2022-09-23T00:09:35;11.90;90.20
33207;DHT22;19565;46.602;11.534;2022-09-23T00:12:04;11.80;90.50
33207;DHT22;19565;46.602;11.534;2022-09-23T00:14:36;11.70;90.50
33207;DHT22;19565;46.602;11.534;2022-09-23T00:17:05;11.60;90.80
33207;DHT22;19565;46.602;11.534;2022-09-23T00:19:33;11.60;90.90
33207;DHT22;19565;46.602;11.534;2022-09-23T00:22:02;11.60;90.80
33207;DHT22;19565;46.602;11.534;2022-09-23T00:24:31;11.60;90.90
33207;DHT22;19565;46.602;11.534;2022-09-23T00:26:59;11.50;90.90
33207;DHT22;19565;46.602;11.534;2022-09-23T00:29:27;11.60;90.70
33207;DHT22;19565;46.602;11.534;2022-09-23T00:31:55;11.60;90.50
33207;DHT22;19565;46.602;11.534;2022-09-23T00:34:23;11.50;90.30
33207;DHT22;19565;46.602;11.534;2022-09-23T00:36:51;11.50;90.40
33207;DHT22;19565;46.602;11.534;2022-09-23T00:39:20;11.40;90.30
33207;DHT22;19565;46.602;11.534;2022-09-23T00:41:49;11.40;90.70
33207;DHT22;19565;46.602;11.534;2022-09-23T00:44:46;11.40;90.90
33207;DHT22;19565;46.602;11.534;2022-09-23T00:47:19;11.50;90.60
33207;DHT22;19565;46.602;11.534;2022-09-23T00:49:52;11.60;90.20
33207;DHT22;19565;46.602;11.534;2022-09-23T00:52:23;11.80;90.10
33207;DHT22;19565;46.602;11.534;2022-09-23T00:54:54;11.90;89.20
33207;DHT22;19565;46.602;11.534;2022-09-23T00:57:24;11.90;88.50
33207;DHT22;19565;46.602;11.534;2022-09-23T00:59:54;11.80;88.90
33207;DHT22;19565;46.602;11.534;2022-09-23T01:02:23;11.70;88.90
33207;DHT22;19565;46.602;11.534;2022-09-23T01:04:52;11.60;89.20
33207;DHT22;19565;46.602;11.534;2022-09-23T01:07:21;11.70;89.10
33207;DHT22;19565;46.602;11.534;2022-09-23T01:09:49;11.70;88.70
33207;DHT22;19565;46.602;11.534;2022-09-23T01:12:29;11.80;88.60
33207;DHT22;19565;46.602;11.534;2022-09-23T01:15:07;11.90;88.00
33207;DHT22;19565;46.602;11.534;2022-09-23T01:17:42;11.80;88.40
33207;DHT22;19565;46.602;11.534;2022-09-23T01:20:30;11.80;88.00
33207;DHT22;19565;46.602;11.534;2022-09-23T01:23:16;11.80;87.90
33207;DHT22;19565;46.602;11.534;2022-09-23T01:26:05;11.60;88.60
33207;DHT22;19565;46.602;11.534;2022-09-23T01:28:58;11.50;88.50
33207;DHT22;19565;46.602;11.534;2022-09-23T01:31:34;11.40;89.60
33207;DHT22;19565;46.602;11.534;2022-09-23T01:34:10;11.30;89.70
33207;DHT22;19565;46.602;11.534;2022-09-23T01:36:44;11.40;89.60
33207;DHT22;19565;46.602;11.534;2022-09-23T01:39:20;11.40;89.10
33207;DHT22;19565;46.602;11.534;2022-09-23T01:41:55;11.50;89.20
33207;DHT22;19565;46.602;11.534;2022-09-23T01:44:31;11.60;89.00
33207;DHT22;19565;46.602;11.534;2022-09-23T01:47:05;11.60;88.20
33207;DHT22;19565;46.602;11.534;2022-09-23T01:49:42;11.50;88.70
33207;DHT22;19565;46.602;11.534;2022-09-23T01:52:15;11.50;88.50
33207;DHT22;19565;46.602;11.534;2022-09-23T01:54:50;11.30;88.90
33207;DHT22;19565;46.602;11.534;2022-09-23T01:57:23;11.40;89.30
33207;DHT22;19565;46.602;11.534;2022-09-23T01:59:57;11.40;88.80
33207;DHT22;19565;46.602;11.534;2022-09-23T02:02:32;11.50;88.20
33207;DHT22;19565;46.602;11.534;2022-09-23T02:05:06;11.40;88.20
33207;DHT22;19565;46.602;11.534;2022-09-23T02:07:38;11.60;88.40
33207;DHT22;19565;46.602;11.534;2022-09-23T02:10:12;11.60;87.70
33207;DHT22;19565;46.602;11.534;2022-09-23T02:12:43;11.80;86.90
33207;DHT22;19565;46.602;11.534;2022-09-23T02:15:15;11.60;86.80
33207;DHT22;19565;46.602;11.534;2022-09-23T02:17:49;11.50;87.60
33207;DHT22;19565;46.602;11.534;2022-09-23T02:20:22;11.50;87.40
33207;DHT22;19565;46.602;11.534;2022-09-23T02:22:55;11.60;86.90
33207;DHT22;19565;46.602;11.534;2022-09-23T02:25:30;11.50;86.70
33207;DHT22;19565;46.602;11.534;2022-09-23T02:28:07;11.40;87.00
33207;DHT22;19565;46.602;11.534;2022-09-23T02:30:42;11.20;88.00
33207;DHT22;19565;46.602;11.534;2022-09-23T02:33:18;11.30;87.80
33207;DHT22;19565;46.602;11.534;2022-09-23T02:35:50;11.30;87.80
33207;DHT22;19565;46.602;11.534;2022-09-23T02:38:28;11.40;87.90
33207;DHT22;19565;46.602;11.534;2022-09-23T02:41:03;11.30;88.20
33207;DHT22;19565;46.602;11.534;2022-09-23T02:43:38;11.20;88.60
33207;DHT22;19565;46.602;11.534;2022-09-23T02:46:11;11.30;88.70
33207;DHT22;19565;46.602;11.534;2022-09-23T02:48:45;11.20;88.30
33207;DHT22;19565;46.602;11.534;2022-09-23T02:51:15;11.20;88.50
33207;DHT22;19565;46.602;11.534;2022-09-23T02:53:43;11.00;89.40
33207;DHT22;19565;46.602;11.534;2022-09-23T02:56:13;11.00;89.70
33207;DHT22;19565;46.602;11.534;2022-09-23T02:58:42;11.00;89.80
33207;DHT22;19565;46.602;11.534;2022-09-23T03:01:17;10.90;90.00
33207;DHT22;19565;46.602;11.534;2022-09-23T03:03:59;11.00;90.10
33207;DHT22;19565;46.602;11.534;2022-09-23T03:06:42;11.10;89.80
33207;DHT22;19565;46.602;11.534;2022-09-23T03:09:21;11.10;89.50
33207;DHT22;19565;46.602;11.534;2022-09-23T03:11:56;11.00;89.50
33207;DHT22;19565;46.602;11.534;2022-09-23T03:14:34;11.00;90.00
33207;DHT22;19565;46.602;11.534;2022-09-23T03:17:10;11.00;90.00
33207;DHT22;19565;46.602;11.534;2022-09-23T03:19:46;10.90;90.20
33207;DHT22;19565;46.602;11.534;2022-09-23T03:22:20;10.90;90.20
33207;DHT22;19565;46.602;11.534;2022-09-23T03:24:50;10.90;90.10
33207;DHT22;19565;46.602;11.534;2022-09-23T03:27:22;10.80;90.30
33207;DHT22;19565;46.602;11.534;2022-09-23T03:29:53;11.00;90.00
33207;DHT22;19565;46.602;11.534;2022-09-23T03:32:23;11.20;89.40
33207;DHT22;19565;46.602;11.534;2022-09-23T03:34:55;11.20;89.60
33207;DHT22;19565;46.602;11.534;2022-09-23T03:37:28;11.00;89.50
33207;DHT22;19565;46.602;11.534;2022-09-23T03:40:00;10.90;89.80
33207;DHT22;19565;46.602;11.534;2022-09-23T03:42:31;11.00;90.00
33207;DHT22;19565;46.602;11.534;2022-09-23T03:45:03;11.10;89.30
33207;DHT22;19565;46.602;11.534;2022-09-23T03:47:34;11.10;89.60
33207;DHT22;19565;46.602;11.534;2022-09-23T03:50:07;11.10;89.80
33207;DHT22;19565;46.602;11.534;2022-09-23T03:52:35;11.00;89.90
33207;DHT22;19565;46.602;11.534;2022-09-23T03:55:06;10.90;90.00
33207;DHT22;19565;46.602;11.534;2022-09-23T03:57:34;11.00;89.90
33207;DHT22;19565;46.602;11.534;2022-09-23T04:00:03;11.00;89.50
33207;DHT22;19565;46.602;11.534;2022-09-23T04:02:32;11.20;89.30
33207;DHT22;19565;46.602;11.534;2022-09-23T04:05:00;11.10;89.00
33207;DHT22;19565;46.602;11.534;2022-09-23T04:07:29;11.20;88.50
33207;DHT22;19565;46.602;11.534;2022-09-23T04:09:57;11.10;89.30
33207;DHT22;19565;46.602;11.534;2022-09-23T04:12:26;11.00;89.30
33207;DHT22;19565;46.602;11.534;2022-09-23T04:14:54;11.00;89.50
33207;DHT22;19565;46.602;11.534;2022-09-23T04:17:22;11.10;89.60
33207;DHT22;19565;46.602;11.534;2022-09-23T04:19:50;11.10;89.00
33207;DHT22;19565;46.602;11.534;2022-09-23T04:22:18;11.00;89.40
33207;DHT22;19565;46.602;11.534;2022-09-23T04:24:47;11.20;89.20
33207;DHT22;19565;46.602;11.534;2022-09-23T04:27:15;11.30;88.70
33207;DHT22;19565;46.602;11.534;2022-09-23T04:29:43;11.30;88.30
33207;DHT22;19565;46.602;11.534;2022-09-23T04:32:11;11.30;88.70
33207;DHT22;19565;46.602;11.534;2022-09-23T04:34:39;11.20;88.70
33207;DHT22;19565;46.602;11.534;2022-09-23T04:37:08;11.20;88.90
33207;DHT22;19565;46.602;11.534;2022-09-23T04:39:36;11.20;89.00
33207;DHT22;19565;46.602;11.534;2022-09-23T04:42:05;11.10;89.70
33207;DHT22;19565;46.602;11.534;2022-09-23T04:44:33;11.10;89.90
33207;DHT22;19565;46.602;11.534;2022-09-23T04:47:02;11.00;90.00
33207;DHT22;19565;46.602;11.534;2022-09-23T04:49:30;10.90;90.20
33207;DHT22;19565;46.602;11.534;2022-09-23T04:51:59;10.90;90.20
33207;DHT22;19565;46.602;11.534;2022-09-23T04:54:28;10.90;90.20
33207;DHT22;19565;46.602;11.534;2022-09-23T04:56:56;10.90;90.20
33207;DHT22;19565;46.602;11.534;2022-09-23T04:59:26;10.90;90.40
33207;DHT22;19565;46.602;11.534;2022-09-23T05:01:54;10.90;90.40
33207;DHT22;19565;46.602;11.534;2022-09-23T05:04:22;10.80;90.40
33207;DHT22;19565;46.602;11.534;2022-09-23T05:06:50;10.70;90.60
33207;DHT22;19565;46.602;11.534;2022-09-23T05:09:18;10.90;90.40
33207;DHT22;19565;46.602;11.534;2022-09-23T05:11:46;10.80;90.40
33207;DHT22;19565;46.602;11.534;2022-09-23T05:14:14;11.00;90.20
33207;DHT22;19565;46.602;11.534;2022-09-23T05:16:43;10.90;90.10
33207;DHT22;19565;46.602;11.534;2022-09-23T05:19:11;10.90;90.20
33207;DHT22;19565;46.602;11.534;2022-09-23T05:21:39;10.80;90.20
33207;DHT22;19565;46.602;11.534;2022-09-23T05:24:07;10.70;90.60
33207;DHT22;19565;46.602;11.534;2022-09-23T05:26:36;10.80;90.80
33207;DHT22;19565;46.602;11.534;2022-09-23T05:29:05;10.80;90.80
33207;DHT22;19565;46.602;11.534;2022-09-23T05:31:34;10.80;90.80
33207;DHT22;19565;46.602;11.534;2022-09-23T05:34:04;10.90;90.50
33207;DHT22;19565;46.602;11.534;2022-09-23T05:36:34;10.90;90.40
33207;DHT22;19565;46.602;11.534;2022-09-23T05:39:05;10.80;90.60
33207;DHT22;19565;46.602;11.534;2022-09-23T05:41:34;10.70;90.80
33207;DHT22;19565;46.602;11.534;2022-09-23T05:44:02;10.80;90.90
33207;DHT22;19565;46.602;11.534;2022-09-23T05:46:31;11.00;90.70
33207;DHT22;19565;46.602;11.534;2022-09-23T05:49:00;10.90;90.40
33207;DHT22;19565;46.602;11.534;2022-09-23T05:51:32;10.80;90.60
33207;DHT22;19565;46.602;11.534;2022-09-23T05:54:02;10.70;90.60
33207;DHT22;19565;46.602;11.534;2022-09-23T05:56:32;10.90;90.50
33207;DHT22;19565;46.602;11.534;2022-09-23T05:59:01;10.80;90.70
33207;DHT22;19565;46.602;11.534;2022-09-23T06:01:31;10.80;90.70
33207;DHT22;19565;46.602;11.534;2022-09-23T06:04:01;10.80;90.90
33207;DHT22;19565;46.602;11.534;2022-09-23T06:06:32;10.90;90.80
33207;DHT22;19565;46.602;11.534;2022-09-23T06:09:02;10.90;90.80
33207;DHT22;19565;46.602;11.534;2022-09-23T06:11:31;10.80;91.00
33207;DHT22;19565;46.602;11.534;2022-09-23T06:14:00;10.90;90.80
33207;DHT22;19565;46.602;11.534;2022-09-23T06:16:30;10.90;90.80
33207;DHT22;19565;46.602;11.534;2022-09-23T06:18:59;11.00;90.70
33207;DHT22;19565;46.602;11.534;2022-09-23T06:21:35;11.00;90.40
33207;DHT22;19565;46.602;11.534;2022-09-23T06:24:04;11.20;90.30
33207;DHT22;19565;46.602;11.534;2022-09-23T06:26:33;11.30;90.10
33207;DHT22;19565;46.602;11.534;2022-09-23T06:29:01;11.40;89.90
33207;DHT22;19565;46.602;11.534;2022-09-23T06:31:30;11.50;89.40
33207;DHT22;19565;46.602;11.534;2022-09-23T06:33:58;11.60;89.10
33207;DHT22;19565;46.602;11.534;2022-09-23T06:36:40;11.60;88.40
33207;DHT22;19565;46.602;11.534;2022-09-23T06:39:12;11.60;87.70
33207;DHT22;19565;46.602;11.534;2022-09-23T06:41:41;11.70;87.40
33207;DHT22;19565;46.602;11.534;2022-09-23T06:44:09;11.60;87.40
33207;DHT22;19565;46.602;11.534;2022-09-23T06:46:37;11.70;87.40
33207;DHT22;19565;46.602;11.534;2022-09-23T06:49:05;11.70;86.70
33207;DHT22;19565;46.602;11.534;2022-09-23T06:51:33;11.70;85.70
33207;DHT22;19565;46.602;11.534;2022-09-23T06:54:03;11.80;86.30
33207;DHT22;19565;46.602;11.534;2022-09-23T06:56:32;11.80;84.20
33207;DHT22;19565;46.602;11.534;2022-09-23T06:59:05;11.90;84.30
33207;DHT22;19565;46.602;11.534;2022-09-23T07:01:34;11.90;83.20
33207;DHT22;19565;46.602;11.534;2022-09-23T07:04:02;11.90;83.60
33207;DHT22;19565;46.602;11.534;2022-09-23T07:06:30;12.00;83.80
33207;DHT22;19565;46.602;11.534;2022-09-23T07:08:58;12.10;83.40
33207;DHT22;19565;46.602;11.534;2022-09-23T07:11:28;12.10;82.40
33207;DHT22;19565;46.602;11.534;2022-09-23T07:13:57;12.10;82.40
33207;DHT22;19565;46.602;11.534;2022-09-23T07:16:25;12.00;82.30
33207;DHT22;19565;46.602;11.534;2022-09-23T07:18:53;12.10;82.40
33207;DHT22;19565;46.602;11.534;2022-09-23T07:21:21;12.20;82.30
33207;DHT22;19565;46.602;11.534;2022-09-23T07:23:52;12.30;82.10
33207;DHT22;19565;46.602;11.534;2022-09-23T07:26:20;12.40;81.80
33207;DHT22;19565;46.602;11.534;2022-09-23T07:28:53;12.50;81.30
33207;DHT22;19565;46.602;11.534;2022-09-23T07:31:22;12.60;81.00
33207;DHT22;19565;46.602;11.534;2022-09-23T07:34:05;12.70;80.80
33207;DHT22;19565;46.602;11.534;2022-09-23T07:36:33;12.70;79.30
33207;DHT22;19565;46.602;11.534;2022-09-23T07:39:03;12.70;79.00
33207;DHT22;19565;46.602;11.534;2022-09-23T07:41:33;12.80;78.50
33207;DHT22;19565;46.602;11.534;2022-09-23T07:44:03;12.70;78.10
33207;DHT22;19565;46.602;11.534;2022-09-23T07:46:34;12.60;78.60
33207;DHT22;19565;46.602;11.534;2022-09-23T07:49:03;12.50;79.30
33207;DHT22;19565;46.602;11.534;2022-09-23T07:51:33;12.60;79.30
33207;DHT22;19565;46.602;11.534;2022-09-23T07:54:03;12.80;79.40
33207;DHT22;19565;46.602;11.534;2022-09-23T07:56:34;13.00;78.80
33207;DHT22;19565;46.602;11.534;2022-09-23T07:59:04;13.10;79.00
33207;DHT22;19565;46.602;11.534;2022-09-23T08:01:36;13.20;76.80
33207;DHT22;19565;46.602;11.534;2022-09-23T08:04:07;13.30;75.80
33207;DHT22;19565;46.602;11.534;2022-09-23T08:06:40;13.40;75.60
33207;DHT22;19565;46.602;11.534;2022-09-23T08:09:10;13.50;75.30
33207;DHT22;19565;46.602;11.534;2022-09-23T08:11:39;13.50;74.70
33207;DHT22;19565;46.602;11.534;2022-09-23T08:14:09;13.60;75.00
33207;DHT22;19565;46.602;11.534;2022-09-23T08:16:39;13.80;74.90
33207;DHT22;19565;46.602;11.534;2022-09-23T08:19:07;13.80;73.40
33207;DHT22;19565;46.602;11.534;2022-09-23T08:21:36;13.90;73.40
33207;DHT22;19565;46.602;11.534;2022-09-23T08:24:05;13.90;73.60
33207;DHT22;19565;46.602;11.534;2022-09-23T08:26:33;14.00;74.10
33207;DHT22;19565;46.602;11.534;2022-09-23T08:29:02;14.10;74.50
33207;DHT22;19565;46.602;11.534;2022-09-23T08:31:32;14.20;74.10
33207;DHT22;19565;46.602;11.534;2022-09-23T08:34:01;14.20;73.80
33207;DHT22;19565;46.602;11.534;2022-09-23T08:36:30;14.40;73.70
33207;DHT22;19565;46.602;11.534;2022-09-23T08:38:58;14.40;73.60
33207;DHT22;19565;46.602;11.534;2022-09-23T08:41:33;14.50;74.10
33207;DHT22;19565;46.602;11.534;2022-09-23T08:44:07;14.60;74.40
33207;DHT22;19565;46.602;11.534;2022-09-23T08:46:42;14.70;74.40
33207;DHT22;19565;46.602;11.534;2022-09-23T08:49:16;14.70;74.10
33207;DHT22;19565;46.602;11.534;2022-09-23T08:51:48;14.80;73.40
33207;DHT22;19565;46.602;11.534;2022-09-23T08:54:20;14.90;73.10
33207;DHT22;19565;46.602;11.534;2022-09-23T08:56:50;15.00;73.30
33207;DHT22;19565;46.602;11.534;2022-09-23T08:59:22;15.00;74.30
33207;DHT22;19565;46.602;11.534;2022-09-23T09:01:58;15.10;75.40
33207;DHT22;19565;46.602;11.534;2022-09-23T09:04:37;15.10;75.40
33207;DHT22;19565;46.602;11.534;2022-09-23T09:07:13;15.20;75.50
33207;DHT22;19565;46.602;11.534;2022-09-23T09:10:04;15.20;75.10
33207;DHT22;19565;46.602;11.534;2022-09-23T09:12:40;15.20;75.70
33207;DHT22;19565;46.602;11.534;2022-09-23T09:15:12;15.30;76.60
33207;DHT22;19565;46.602;11.534;2022-09-23T09:17:50;15.40;78.20
33207;DHT22;19565;46.602;11.534;2022-09-23T09:20:30;15.40;77.70
33207;DHT22;19565;46.602;11.534;2022-09-23T09:23:06;15.50;78.30
33207;DHT22;19565;46.602;11.534;2022-09-23T09:25:42;15.60;78.40
33207;DHT22;19565;46.602;11.534;2022-09-23T09:28:17;15.70;77.60
33207;DHT22;19565;46.602;11.534;2022-09-23T09:30:49;15.80;77.50
33207;DHT22;19565;46.602;11.534;2022-09-23T09:33:24;15.80;77.80
33207;DHT22;19565;46.602;11.534;2022-09-23T09:36:14;15.90;75.60
33207;DHT22;19565;46.602;11.534;2022-09-23T09:38:45;15.90;74.80
33207;DHT22;19565;46.602;11.534;2022-09-23T09:41:15;15.90;75.80
33207;DHT22;19565;46.602;11.534;2022-09-23T09:43:45;15.90;76.10
33207;DHT22;19565;46.602;11.534;2022-09-23T09:46:30;15.90;75.30
33207;DHT22;19565;46.602;11.534;2022-09-23T09:49:10;16.00;75.30
33207;DHT22;19565;46.602;11.534;2022-09-23T09:51:38;15.90;75.40
33207;DHT22;19565;46.602;11.534;2022-09-23T09:54:16;15.90;76.20
33207;DHT22;19565;46.602;11.534;2022-09-23T09:56:46;16.00;75.70
33207;DHT22;19565;46.602;11.534;2022-09-23T09:59:17;16.00;75.20
33207;DHT22;19565;46.602;11.534;2022-09-23T10:01:49;16.10;74.90
33207;DHT22;19565;46.602;11.534;2022-09-23T10:04:22;16.10;74.20
33207;DHT22;19565;46.602;11.534;2022-09-23T10:07:05;16.10;74.80
33207;DHT22;19565;46.602;11.534;2022-09-23T10:09:36;16.10;74.70
33207;DHT22;19565;46.602;11.534;2022-09-23T10:12:12;16.10;75.00
33207;DHT22;19565;46.602;11.534;2022-09-23T10:14:46;16.10;75.00
33207;DHT22;19565;46.602;11.534;2022-09-23T10:17:19;16.20;74.80
33207;DHT22;19565;46.602;11.534;2022-09-23T10:19:53;16.20;74.80
33207;DHT22;19565;46.602;11.534;2022-09-23T10:22:30;16.20;73.70
33207;DHT22;19565;46.602;11.534;2022-09-23T10:25:01;16.20;73.70
33207;DHT22;19565;46.602;11.534;2022-09-23T10:27:33;16.30;73.10
33207;DHT22;19565;46.602;11.534;2022-09-23T10:30:04;16.30;73.00
33207;DHT22;19565;46.602;11.534;2022-09-23T10:32:33;16.30;71.70
33207;DHT22;19565;46.602;11.534;2022-09-23T10:35:13;16.30;72.00
33207;DHT22;19565;46.602;11.534;2022-09-23T10:37:44;16.40;71.30
33207;DHT22;19565;46.602;11.534;2022-09-23T10:40:17;16.40;70.20
33207;DHT22;19565;46.602;11.534;2022-09-23T10:43:17;16.40;70.70
33207;DHT22;19565;46.602;11.534;2022-09-23T10:46:06;16.50;70.80
33207;DHT22;19565;46.602;11.534;2022-09-23T10:49:15;16.50;71.90
33207;DHT22;19565;46.602;11.534;2022-09-23T10:51:58;16.70;72.70
33207;DHT22;19565;46.602;11.534;2022-09-23T10:54:35;16.70;72.80
33207;DHT22;19565;46.602;11.534;2022-09-23T10:57:17;16.70;72.20
33207;DHT22;19565;46.602;11.534;2022-09-23T11:00:19;16.70;71.20
33207;DHT22;19565;46.602;11.534;2022-09-23T11:03:06;16.80;71.00
33207;DHT22;19565;46.602;11.534;2022-09-23T11:05:43;16.80;71.00
33207;DHT22;19565;46.602;11.534;2022-09-23T11:08:32;16.90;71.20
33207;DHT22;19565;46.602;11.534;2022-09-23T11:11:16;16.90;71.00
33207;DHT22;19565;46.602;11.534;2022-09-23T11:14:02;17.00;71.30
33207;DHT22;19565;46.602;11.534;2022-09-23T11:16:44;17.00;70.70
33207;DHT22;19565;46.602;11.534;2022-09-23T11:19:28;17.00;71.20
33207;DHT22;19565;46.602;11.534;2022-09-23T11:22:12;17.00;70.50
33207;DHT22;19565;46.602;11.534;2022-09-23T11:24:59;17.10;71.00
33207;DHT22;19565;46.602;11.534;2022-09-23T11:27:48;17.20;70.70
33207;DHT22;19565;46.602;11.534;2022-09-23T11:30:20;17.20;70.20
33207;DHT22;19565;46.602;11.534;2022-09-23T11:33:04;17.20;70.50
33207;DHT22;19565;46.602;11.534;2022-09-23T11:35:44;17.30;70.40
33207;DHT22;19565;46.602;11.534;2022-09-23T11:38:17;17.30;70.40
33207;DHT22;19565;46.602;11.534;2022-09-23T11:40:54;17.40;69.60
33207;DHT22;19565;46.602;11.534;2022-09-23T11:43:26;17.40;69.60
33207;DHT22;19565;46.602;11.534;2022-09-23T11:45:57;17.50;68.40
33207;DHT22;19565;46.602;11.534;2022-09-23T11:48:31;17.50;69.00
33207;DHT22;19565;46.602;11.534;2022-09-23T11:51:03;17.60;68.00
33207;DHT22;19565;46.602;11.534;2022-09-23T11:53:39;17.60;67.90
33207;DHT22;19565;46.602;11.534;2022-09-23T11:56:15;17.70;67.70
33207;DHT22;19565;46.602;11.534;2022-09-23T11:59:03;17.70;66.90
33207;DHT22;19565;46.602;11.534;2022-09-23T12:01:37;17.70;66.50
33207;DHT22;19565;46.602;11.534;2022-09-23T12:04:15;17.70;67.20
33207;DHT22;19565;46.602;11.534;2022-09-23T12:06:51;17.80;67.00
33207;DHT22;19565;46.602;11.534;2022-09-23T12:09:23;17.90;67.40
33207;DHT22;19565;46.602;11.534;2022-09-23T12:12:20;17.90;66.00
33207;DHT22;19565;46.602;11.534;2022-09-23T12:14:58;18.00;66.40
33207;DHT22;19565;46.602;11.534;2022-09-23T12:17:46;18.00;66.60
33207;DHT22;19565;46.602;11.534;2022-09-23T12:20:41;18.00;66.90
33207;DHT22;19565;46.602;11.534;2022-09-23T12:23:25;18.00;66.80
33207;DHT22;19565;46.602;11.534;2022-09-23T12:25:56;18.10;66.10
33207;DHT22;19565;46.602;11.534;2022-09-23T12:28:33;18.10;66.00
33207;DHT22;19565;46.602;11.534;2022-09-23T12:31:04;18.20;66.00
33207;DHT22;19565;46.602;11.534;2022-09-23T12:33:35;18.20;65.00
33207;DHT22;19565;46.602;11.534;2022-09-23T12:36:05;18.20;65.80
33207;DHT22;19565;46.602;11.534;2022-09-23T12:38:37;18.30;64.70
33207;DHT22;19565;46.602;11.534;2022-09-23T12:41:19;18.40;65.10
33207;DHT22;19565;46.602;11.534;2022-09-23T12:43:53;18.30;65.30
33207;DHT22;19565;46.602;11.534;2022-09-23T12:46:23;18.40;64.70
33207;DHT22;19565;46.602;11.534;2022-09-23T12:49:00;18.40;65.20
33207;DHT22;19565;46.602;11.534;2022-09-23T12:51:30;18.50;64.70
33207;DHT22;19565;46.602;11.534;2022-09-23T12:54:21;18.40;64.30
33207;DHT22;19565;46.602;11.534;2022-09-23T12:56:58;18.50;64.70
33207;DHT22;19565;46.602;11.534;2022-09-23T12:59:29;18.50;64.80
33207;DHT22;19565;46.602;11.534;2022-09-23T13:02:25;18.60;64.80
33207;DHT22;19565;46.602;11.534;2022-09-23T13:05:15;18.60;65.00
33207;DHT22;19565;46.602;11.534;2022-09-23T13:08:05;18.60;64.30
33207;DHT22;19565;46.602;11.534;2022-09-23T13:10:40;18.60;64.40
33207;DHT22;19565;46.602;11.534;2022-09-23T13:13:19;18.60;64.00
33207;DHT22;19565;46.602;11.534;2022-09-23T13:15:49;18.70;64.40
33207;DHT22;19565;46.602;11.534;2022-09-23T13:21:17;18.70;64.40
33207;DHT22;19565;46.602;11.534;2022-09-23T13:24:18;18.70;63.50
33207;DHT22;19565;46.602;11.534;2022-09-23T13:26:49;18.80;64.20
33207;DHT22;19565;46.602;11.534;2022-09-23T13:29:21;18.80;64.50
33207;DHT22;19565;46.602;11.534;2022-09-23T13:31:51;18.80;64.50
33207;DHT22;19565;46.602;11.534;2022-09-23T13:34:23;18.80;63.70
33207;DHT22;19565;46.602;11.534;2022-09-23T13:36:51;18.80;63.50
33207;DHT22;19565;46.602;11.534;2022-09-23T13:39:22;18.90;64.30
33207;DHT22;19565;46.602;11.534;2022-09-23T13:41:52;18.90;63.70
33207;DHT22;19565;46.602;11.534;2022-09-23T13:44:21;18.90;63.70
33207;DHT22;19565;46.602;11.534;2022-09-23T13:46:53;19.00;63.30
33207;DHT22;19565;46.602;11.534;2022-09-23T13:49:23;19.00;63.20
33207;DHT22;19565;46.602;11.534;2022-09-23T13:51:55;19.00;62.80
33207;DHT22;19565;46.602;11.534;2022-09-23T13:54:28;19.10;63.20
33207;DHT22;19565;46.602;11.534;2022-09-23T13:56:57;19.20;62.60
33207;DHT22;19565;46.602;11.534;2022-09-23T13:59:26;19.30;62.80
33207;DHT22;19565;46.602;11.534;2022-09-23T14:02:11;19.20;62.80
33207;DHT22;19565;46.602;11.534;2022-09-23T14:04:42;19.20;63.00
33207;DHT22;19565;46.602;11.534;2022-09-23T14:07:12;19.30;62.10
33207;DHT22;19565;46.602;11.534;2022-09-23T14:09:43;19.40;62.50
33207;DHT22;19565;46.602;11.534;2022-09-23T14:12:11;19.50;61.70
33207;DHT22;19565;46.602;11.534;2022-09-23T14:14:40;19.40;61.80
33207;DHT22;19565;46.602;11.534;2022-09-23T14:17:15;19.50;61.10
33207;DHT22;19565;46.602;11.534;2022-09-23T14:19:45;19.50;61.20
33207;DHT22;19565;46.602;11.534;2022-09-23T14:22:22;19.50;59.40
33207;DHT22;19565;46.602;11.534;2022-09-23T14:24:51;19.50;60.30
33207;DHT22;19565;46.602;11.534;2022-09-23T14:27:25;19.60;61.50
33207;DHT22;19565;46.602;11.534;2022-09-23T14:29:54;19.60;61.70
33207;DHT22;19565;46.602;11.534;2022-09-23T14:32:24;19.60;62.10
33207;DHT22;19565;46.602;11.534;2022-09-23T14:35:05;19.60;62.00
33207;DHT22;19565;46.602;11.534;2022-09-23T14:37:40;19.70;61.90
33207;DHT22;19565;46.602;11.534;2022-09-23T14:40:28;19.70;62.00
33207;DHT22;19565;46.602;11.534;2022-09-23T14:42:59;19.70;61.20
33207;DHT22;19565;46.602;11.534;2022-09-23T14:45:30;19.80;62.60
33207;DHT22;19565;46.602;11.534;2022-09-23T14:48:05;19.70;62.30
33207;DHT22;19565;46.602;11.534;2022-09-23T14:50:34;19.60;62.70
33207;DHT22;19565;46.602;11.534;2022-09-23T14:53:43;19.40;61.90
33207;DHT22;19565;46.602;11.534;2022-09-23T14:56:14;19.40;62.10
33207;DHT22;19565;46.602;11.534;2022-09-23T14:58:46;19.30;62.50
33207;DHT22;19565;46.602;11.534;2022-09-23T15:01:35;19.30;62.90
33207;DHT22;19565;46.602;11.534;2022-09-23T15:04:16;19.20;62.20
33207;DHT22;19565;46.602;11.534;2022-09-23T15:06:58;19.20;62.90
33207;DHT22;19565;46.602;11.534;2022-09-23T15:09:30;19.20;63.00
33207;DHT22;19565;46.602;11.534;2022-09-23T15:12:01;19.10;63.60
33207;DHT22;19565;46.602;11.534;2022-09-23T15:14:34;19.10;64.20
33207;DHT22;19565;46.602;11.534;2022-09-23T15:17:16;19.00;64.50
33207;DHT22;19565;46.602;11.534;2022-09-23T15:19:51;18.90;64.90
33207;DHT22;19565;46.602;11.534;2022-09-23T15:22:23;18.90;65.60
33207;DHT22;19565;46.602;11.534;2022-09-23T15:24:52;18.80;66.10
33207;DHT22;19565;46.602;11.534;2022-09-23T15:27:39;18.80;66.30
33207;DHT22;19565;46.602;11.534;2022-09-23T15:30:13;18.70;66.00
33207;DHT22;19565;46.602;11.534;2022-09-23T15:32:43;18.70;66.50
33207;DHT22;19565;46.602;11.534;2022-09-23T15:35:14;18.70;67.00
33207;DHT22;19565;46.602;11.534;2022-09-23T15:37:46;18.60;67.60
33207;DHT22;19565;46.602;11.534;2022-09-23T15:40:19;18.60;67.50
33207;DHT22;19565;46.602;11.534;2022-09-23T15:42:49;18.50;67.50
33207;DHT22;19565;46.602;11.534;2022-09-23T15:45:20;18.50;68.00
33207;DHT22;19565;46.602;11.534;2022-09-23T15:47:53;18.50;67.80
33207;DHT22;19565;46.602;11.534;2022-09-23T15:50:22;18.40;68.50
33207;DHT22;19565;46.602;11.534;2022-09-23T15:52:50;18.30;68.50
33207;DHT22;19565;46.602;11.534;2022-09-23T15:55:19;18.30;68.70
33207;DHT22;19565;46.602;11.534;2022-09-23T15:57:48;18.30;69.10